PWSweather.com
Personal Weather Stations
Station Observations
MART18
Seleziona Stato..., MartinsicuroIT italia

Seleziona Stato...MartinsicuroIT italia

Lat: 42.885169, Lon: 13.918447300000025

Elevation: 3

Station Type: Davis vantage vp2

branciuno67@gmail.com

High Low Average
Temperature 75.4°F24.1°C 64.9°F18.3°C 70.1°F21.2°C
Dew Point 59.5°F15.3°C 52.9°F11.6°C 55.7°F13.2°C
Winds 15.0 mph 24.1 kmh 0.9 mph 1.4 kmh 7.0 mph SW11.3 kmh SW
Wind Gusts 23.0 mph37.0 kmh 2.9 mph4.7 kmh 14.0 mph22.5 kmh
Humidity 74% 47% 61%
Pressure 29.97 in1014.9 mb 29.84 in1010.5 mb -
Precipitation 0.00 in0.0 mm - -
Hour Temp Dew Point Humidity Winds Wind Gusts Pressure Precip Precip Rate Daily Precip Total
12:01 AM 65.5°F18.6°C 57.0°F13.9°C 74% 4.9 mph NW7.9 kmh NW 11.0 mph17.7 kmh 29.84 in1010.5 mb 0.00 in0.0 mm 0.00 in0.0 mm 0.00 in0.0 mm
12:06 AM 65.5°F18.6°C 57.0°F13.9°C 74% 4.9 mph WNW7.9 kmh WNW 10.1 mph16.3 kmh 29.84 in1010.5 mb 0.00 in0.0 mm 0.00 in0.0 mm 0.00 in0.0 mm
12:11 AM 65.5°F18.6°C 57.0°F13.9°C 74% 4.0 mph WNW6.4 kmh WNW 13.0 mph20.9 kmh 29.84 in1010.5 mb 0.00 in0.0 mm 0.00 in0.0 mm 0.00 in0.0 mm
12:16 AM 65.5°F18.6°C 56.7°F13.7°C 73% 4.0 mph NW6.4 kmh NW 13.0 mph20.9 kmh 29.84 in1010.5 mb 0.00 in0.0 mm 0.00 in0.0 mm 0.00 in0.0 mm
12:21 AM 65.3°F18.5°C 56.5°F13.6°C 73% 6.0 mph W9.7 kmh W 14.1 mph22.7 kmh 29.84 in1010.5 mb 0.00 in0.0 mm 0.00 in0.0 mm 0.00 in0.0 mm
12:26 AM 65.3°F18.5°C 56.5°F13.6°C 73% 6.9 mph NW11.1 kmh NW 15.0 mph24.1 kmh 29.84 in1010.5 mb 0.00 in0.0 mm 0.00 in0.0 mm 0.00 in0.0 mm
12:31 AM 65.3°F18.5°C 56.1°F13.4°C 72% 6.0 mph NW9.7 kmh NW 12.1 mph19.5 kmh 29.84 in1010.5 mb 0.00 in0.0 mm 0.00 in0.0 mm 0.00 in0.0 mm
12:36 AM 65.1°F18.4°C 55.9°F13.3°C 72% 6.0 mph W9.7 kmh W 15.0 mph24.1 kmh 29.84 in1010.5 mb 0.00 in0.0 mm 0.00 in0.0 mm 0.00 in0.0 mm
12:41 AM 65.1°F18.4°C 55.9°F13.3°C 72% 8.1 mph W13.0 kmh W 17.0 mph27.4 kmh 29.84 in1010.5 mb 0.00 in0.0 mm 0.00 in0.0 mm 0.00 in0.0 mm
12:46 AM 65.1°F18.4°C 55.4°F13.0°C 71% 8.9 mph WNW14.3 kmh WNW 16.1 mph25.9 kmh 29.84 in1010.5 mb 0.00 in0.0 mm 0.00 in0.0 mm 0.00 in0.0 mm
12:51 AM 65.1°F18.4°C 55.4°F13.0°C 71% 8.1 mph NW13.0 kmh NW 11.0 mph17.7 kmh 29.84 in1010.5 mb 0.00 in0.0 mm 0.00 in0.0 mm 0.00 in0.0 mm
12:56 AM 65.1°F18.4°C 55.4°F13.0°C 71% 6.0 mph WSW9.7 kmh WSW 13.0 mph20.9 kmh 29.84 in1010.5 mb 0.00 in0.0 mm 0.00 in0.0 mm 0.00 in0.0 mm
01:01 AM 65.1°F18.4°C 55.4°F13.0°C 71% 6.9 mph W11.1 kmh W 14.0 mph22.5 kmh 29.84 in1010.5 mb 0.00 in0.0 mm 0.00 in0.0 mm 0.00 in0.0 mm
01:06 AM 65.1°F18.4°C 55.4°F13.0°C 71% 8.1 mph W13.0 kmh W 15.0 mph24.1 kmh 29.84 in1010.5 mb 0.00 in0.0 mm 0.00 in0.0 mm 0.00 in0.0 mm
01:11 AM 65.1°F18.4°C 55.0°F12.8°C 70% 6.9 mph W11.1 kmh W 12.1 mph19.5 kmh 29.84 in1010.5 mb 0.00 in0.0 mm 0.00 in0.0 mm 0.00 in0.0 mm
01:16 AM 65.1°F18.4°C 55.0°F12.8°C 70% 6.9 mph W11.1 kmh W 12.1 mph19.5 kmh 29.84 in1010.5 mb 0.00 in0.0 mm 0.00 in0.0 mm 0.00 in0.0 mm
01:21 AM 65.1°F18.4°C 55.0°F12.8°C 70% 6.9 mph WNW11.1 kmh WNW 15.0 mph24.1 kmh 29.84 in1010.5 mb 0.00 in0.0 mm 0.00 in0.0 mm 0.00 in0.0 mm
01:26 AM 65.1°F18.4°C 55.0°F12.8°C 70% 8.1 mph WSW13.0 kmh WSW 15.0 mph24.1 kmh 29.85 in1010.8 mb 0.00 in0.0 mm 0.00 in0.0 mm 0.00 in0.0 mm
01:31 AM 65.1°F18.4°C 55.0°F12.8°C 70% 8.9 mph W14.3 kmh W 16.1 mph25.9 kmh 29.85 in1010.8 mb 0.00 in0.0 mm 0.00 in0.0 mm 0.00 in0.0 mm
01:36 AM 65.1°F18.4°C 55.0°F12.8°C 70% 8.9 mph W14.3 kmh W 16.1 mph25.9 kmh 29.84 in1010.5 mb 0.00 in0.0 mm 0.00 in0.0 mm 0.00 in0.0 mm
01:41 AM 64.9°F18.3°C 54.9°F12.7°C 70% 8.9 mph NW14.3 kmh NW 17.0 mph27.4 kmh 29.85 in1010.8 mb 0.00 in0.0 mm 0.00 in0.0 mm 0.00 in0.0 mm
01:46 AM 64.9°F18.3°C 54.9°F12.7°C 70% 8.9 mph NW14.3 kmh NW 17.0 mph27.4 kmh 29.85 in1010.8 mb 0.00 in0.0 mm 0.00 in0.0 mm 0.00 in0.0 mm
01:51 AM 64.9°F18.3°C 54.9°F12.7°C 70% 8.9 mph NW14.3 kmh NW 15.0 mph24.1 kmh 29.85 in1010.8 mb 0.00 in0.0 mm 0.00 in0.0 mm 0.00 in0.0 mm
01:56 AM 64.9°F18.3°C 54.9°F12.7°C 70% 8.1 mph W13.0 kmh W 16.1 mph25.9 kmh 29.85 in1010.8 mb 0.00 in0.0 mm 0.00 in0.0 mm 0.00 in0.0 mm
02:01 AM 65.1°F18.4°C 55.0°F12.8°C 70% 8.9 mph W14.3 kmh W 18.0 mph29.0 kmh 29.85 in1010.8 mb 0.00 in0.0 mm 0.00 in0.0 mm 0.00 in0.0 mm
02:06 AM 65.1°F18.4°C 54.7°F12.6°C 69% 10.1 mph WNW16.3 kmh WNW 18.0 mph29.0 kmh 29.84 in1010.5 mb 0.00 in0.0 mm 0.00 in0.0 mm 0.00 in0.0 mm
02:11 AM 65.1°F18.4°C 54.7°F12.6°C 69% 8.9 mph W14.3 kmh W 16.1 mph25.9 kmh 29.84 in1010.5 mb 0.00 in0.0 mm 0.00 in0.0 mm 0.00 in0.0 mm
02:16 AM 65.1°F18.4°C 54.7°F12.6°C 69% 8.1 mph WSW13.0 kmh WSW 17.0 mph27.4 kmh 29.85 in1010.8 mb 0.00 in0.0 mm 0.00 in0.0 mm 0.00 in0.0 mm
02:21 AM 65.1°F18.4°C 54.7°F12.6°C 69% 8.1 mph NW13.0 kmh NW 14.1 mph22.7 kmh 29.85 in1010.8 mb 0.00 in0.0 mm 0.00 in0.0 mm 0.00 in0.0 mm
02:26 AM 65.1°F18.4°C 54.7°F12.6°C 69% 6.9 mph WSW11.1 kmh WSW 13.0 mph20.9 kmh 29.85 in1010.8 mb 0.00 in0.0 mm 0.00 in0.0 mm 0.00 in0.0 mm
02:31 AM 65.1°F18.4°C 54.7°F12.6°C 69% 6.9 mph WNW11.1 kmh WNW 15.0 mph24.1 kmh 29.85 in1010.8 mb 0.00 in0.0 mm 0.00 in0.0 mm 0.00 in0.0 mm
02:36 AM 65.1°F18.4°C 54.7°F12.6°C 69% 8.1 mph NW13.0 kmh NW 14.1 mph22.7 kmh 29.85 in1010.8 mb 0.00 in0.0 mm 0.00 in0.0 mm 0.00 in0.0 mm
02:41 AM 65.1°F18.4°C 54.7°F12.6°C 69% 8.1 mph W13.0 kmh W 15.0 mph24.1 kmh 29.85 in1010.8 mb 0.00 in0.0 mm 0.00 in0.0 mm 0.00 in0.0 mm
02:46 AM 65.3°F18.5°C 54.9°F12.7°C 69% 8.9 mph W14.3 kmh W 18.0 mph29.0 kmh 29.85 in1010.8 mb 0.00 in0.0 mm 0.00 in0.0 mm 0.00 in0.0 mm
02:51 AM 65.1°F18.4°C 54.7°F12.6°C 69% 8.9 mph WNW14.3 kmh WNW 16.1 mph25.9 kmh 29.85 in1010.8 mb 0.00 in0.0 mm 0.00 in0.0 mm 0.00 in0.0 mm
02:56 AM 65.1°F18.4°C 54.7°F12.6°C 69% 8.9 mph NW14.3 kmh NW 16.1 mph25.9 kmh 29.84 in1010.5 mb 0.00 in0.0 mm 0.00 in0.0 mm 0.00 in0.0 mm
03:01 AM 65.1°F18.4°C 54.7°F12.6°C 69% 8.9 mph WNW14.3 kmh WNW 15.0 mph24.1 kmh 29.84 in1010.5 mb 0.00 in0.0 mm 0.00 in0.0 mm 0.00 in0.0 mm
03:06 AM 65.1°F18.4°C 54.7°F12.6°C 69% 8.9 mph W14.3 kmh W 16.1 mph25.9 kmh 29.84 in1010.5 mb 0.00 in0.0 mm 0.00 in0.0 mm 0.00 in0.0 mm
03:11 AM 65.1°F18.4°C 54.7°F12.6°C 69% 8.1 mph SW13.0 kmh SW 14.1 mph22.7 kmh 29.84 in1010.5 mb 0.00 in0.0 mm 0.00 in0.0 mm 0.00 in0.0 mm
03:16 AM 65.3°F18.5°C 54.9°F12.7°C 69% 6.9 mph W11.1 kmh W 11.0 mph17.7 kmh 29.84 in1010.5 mb 0.00 in0.0 mm 0.00 in0.0 mm 0.00 in0.0 mm
03:21 AM 65.3°F18.5°C 54.5°F12.5°C 68% 6.9 mph NW11.1 kmh NW 16.1 mph25.9 kmh 29.84 in1010.5 mb 0.00 in0.0 mm 0.00 in0.0 mm 0.00 in0.0 mm
03:26 AM 65.3°F18.5°C 54.5°F12.5°C 68% 8.1 mph W13.0 kmh W 15.0 mph24.1 kmh 29.84 in1010.5 mb 0.00 in0.0 mm 0.00 in0.0 mm 0.00 in0.0 mm
03:31 AM 65.5°F18.6°C 54.7°F12.6°C 68% 8.1 mph NW13.0 kmh NW 14.1 mph22.7 kmh 29.84 in1010.5 mb 0.00 in0.0 mm 0.00 in0.0 mm 0.00 in0.0 mm
03:36 AM 65.5°F18.6°C 54.3°F12.4°C 67% 8.1 mph N13.0 kmh N 17.0 mph27.4 kmh 29.84 in1010.5 mb 0.00 in0.0 mm 0.00 in0.0 mm 0.00 in0.0 mm
03:41 AM 65.7°F18.7°C 54.3°F12.4°C 67% 8.9 mph W14.3 kmh W 16.1 mph25.9 kmh 29.84 in1010.5 mb 0.00 in0.0 mm 0.00 in0.0 mm 0.00 in0.0 mm
03:46 AM 65.7°F18.7°C 54.3°F12.4°C 67% 8.1 mph WNW13.0 kmh WNW 15.0 mph24.1 kmh 29.84 in1010.5 mb 0.00 in0.0 mm 0.00 in0.0 mm 0.00 in0.0 mm
03:51 AM 65.7°F18.7°C 54.3°F12.4°C 67% 8.1 mph WSW13.0 kmh WSW 16.1 mph25.9 kmh 29.84 in1010.5 mb 0.00 in0.0 mm 0.00 in0.0 mm 0.00 in0.0 mm
03:56 AM 65.7°F18.7°C 54.3°F12.4°C 67% 8.1 mph W13.0 kmh W 15.0 mph24.1 kmh 29.85 in1010.8 mb 0.00 in0.0 mm 0.00 in0.0 mm 0.00 in0.0 mm
04:01 AM 65.5°F18.6°C 54.3°F12.4°C 67% 8.1 mph W13.0 kmh W 16.1 mph25.9 kmh 29.85 in1010.8 mb 0.00 in0.0 mm 0.00 in0.0 mm 0.00 in0.0 mm
04:06 AM 65.5°F18.6°C 54.7°F12.6°C 68% 8.9 mph NW14.3 kmh NW 13.0 mph20.9 kmh 29.85 in1010.8 mb 0.00 in0.0 mm 0.00 in0.0 mm 0.00 in0.0 mm
04:11 AM 65.5°F18.6°C 54.7°F12.6°C 68% 8.1 mph WNW13.0 kmh WNW 16.1 mph25.9 kmh 29.85 in1010.8 mb 0.00 in0.0 mm 0.00 in0.0 mm 0.00 in0.0 mm
04:16 AM 65.3°F18.5°C 54.5°F12.5°C 68% 6.9 mph WSW11.1 kmh WSW 15.0 mph24.1 kmh 29.84 in1010.5 mb 0.00 in0.0 mm 0.00 in0.0 mm 0.00 in0.0 mm
04:21 AM 65.1°F18.4°C 54.3°F12.4°C 68% 6.9 mph W11.1 kmh W 11.0 mph17.7 kmh 29.85 in1010.8 mb 0.00 in0.0 mm 0.00 in0.0 mm 0.00 in0.0 mm
04:26 AM 65.1°F18.4°C 54.3°F12.4°C 68% 6.9 mph WNW11.1 kmh WNW 12.1 mph19.5 kmh 29.85 in1010.8 mb 0.00 in0.0 mm 0.00 in0.0 mm 0.00 in0.0 mm
04:31 AM 64.9°F18.3°C 54.1°F12.3°C 68% 6.0 mph W9.7 kmh W 13.0 mph20.9 kmh 29.85 in1010.8 mb 0.00 in0.0 mm 0.00 in0.0 mm 0.00 in0.0 mm
04:36 AM 64.9°F18.3°C 54.1°F12.3°C 68% 6.0 mph W9.7 kmh W 14.1 mph22.7 kmh 29.85 in1010.8 mb 0.00 in0.0 mm 0.00 in0.0 mm 0.00 in0.0 mm
04:41 AM 64.9°F18.3°C 54.5°F12.5°C 69% 6.0 mph W9.7 kmh W 10.1 mph16.3 kmh 29.85 in1010.8 mb 0.00 in0.0 mm 0.00 in0.0 mm 0.00 in0.0 mm
04:46 AM 64.9°F18.3°C 54.5°F12.5°C 69% 4.9 mph W7.9 kmh W 10.1 mph16.3 kmh 29.85 in1010.8 mb 0.00 in0.0 mm 0.00 in0.0 mm 0.00 in0.0 mm
04:51 AM 64.9°F18.3°C 54.5°F12.5°C 69% 4.9 mph WNW7.9 kmh WNW 8.9 mph14.3 kmh 29.85 in1010.8 mb 0.00 in0.0 mm 0.00 in0.0 mm 0.00 in0.0 mm
04:56 AM 65.1°F18.4°C 54.7°F12.6°C 69% 4.9 mph W7.9 kmh W 11.0 mph17.7 kmh 29.85 in1010.8 mb 0.00 in0.0 mm 0.00 in0.0 mm 0.00 in0.0 mm
05:01 AM 65.1°F18.4°C 54.7°F12.6°C 69% 4.9 mph WNW7.9 kmh WNW 11.0 mph17.7 kmh 29.85 in1010.8 mb 0.00 in0.0 mm 0.00 in0.0 mm 0.00 in0.0 mm
05:06 AM 65.3°F18.5°C 54.9°F12.7°C 69% 6.9 mph W11.1 kmh W 13.0 mph20.9 kmh 29.85 in1010.8 mb 0.00 in0.0 mm 0.00 in0.0 mm 0.00 in0.0 mm
05:11 AM 65.3°F18.5°C 54.9°F12.7°C 69% 6.9 mph WNW11.1 kmh WNW 11.0 mph17.7 kmh 29.85 in1010.8 mb 0.00 in0.0 mm 0.00 in0.0 mm 0.00 in0.0 mm
05:16 AM 65.3°F18.5°C 54.9°F12.7°C 69% 4.9 mph SW7.9 kmh SW 14.1 mph22.7 kmh 29.86 in1011.2 mb 0.00 in0.0 mm 0.00 in0.0 mm 0.00 in0.0 mm
05:21 AM 65.3°F18.5°C 54.9°F12.7°C 69% 4.9 mph NW7.9 kmh NW 10.1 mph16.3 kmh 29.86 in1011.2 mb 0.00 in0.0 mm 0.00 in0.0 mm 0.00 in0.0 mm
05:26 AM 65.1°F18.4°C 54.7°F12.6°C 69% 6.0 mph WNW9.7 kmh WNW 12.1 mph19.5 kmh 29.86 in1011.2 mb 0.00 in0.0 mm 0.00 in0.0 mm 0.00 in0.0 mm
05:31 AM 65.3°F18.5°C 54.9°F12.7°C 69% 6.9 mph WNW11.1 kmh WNW 13.0 mph20.9 kmh 29.86 in1011.2 mb 0.00 in0.0 mm 0.00 in0.0 mm 0.00 in0.0 mm
05:36 AM 65.3°F18.5°C 54.9°F12.7°C 69% 6.0 mph NNW9.7 kmh NNW 10.1 mph16.3 kmh 29.86 in1011.2 mb 0.00 in0.0 mm 0.00 in0.0 mm 0.00 in0.0 mm
05:41 AM 65.5°F18.6°C 55.4°F13.0°C 70% 6.0 mph W9.7 kmh W 12.1 mph19.5 kmh 29.86 in1011.2 mb 0.00 in0.0 mm 0.00 in0.0 mm 0.00 in0.0 mm
05:46 AM 65.5°F18.6°C 55.4°F13.0°C 70% 6.9 mph W11.1 kmh W 12.1 mph19.5 kmh 29.86 in1011.2 mb 0.00 in0.0 mm 0.00 in0.0 mm 0.00 in0.0 mm
05:51 AM 65.5°F18.6°C 55.0°F12.8°C 69% 6.0 mph W9.7 kmh W 11.0 mph17.7 kmh 29.87 in1011.5 mb 0.00 in0.0 mm 0.00 in0.0 mm 0.00 in0.0 mm
05:56 AM 65.5°F18.6°C 55.4°F13.0°C 70% 4.9 mph WNW7.9 kmh WNW 10.1 mph16.3 kmh 29.87 in1011.5 mb 0.00 in0.0 mm 0.00 in0.0 mm 0.00 in0.0 mm
06:01 AM 65.5°F18.6°C 55.4°F13.0°C 70% 4.9 mph W7.9 kmh W 11.0 mph17.7 kmh 29.87 in1011.5 mb 0.00 in0.0 mm 0.00 in0.0 mm 0.00 in0.0 mm
06:06 AM 65.5°F18.6°C 55.4°F13.0°C 70% 6.0 mph WNW9.7 kmh WNW 10.1 mph16.3 kmh 29.87 in1011.5 mb 0.00 in0.0 mm 0.00 in0.0 mm 0.00 in0.0 mm
06:11 AM 65.5°F18.6°C 55.4°F13.0°C 70% 4.9 mph W7.9 kmh W 12.1 mph19.5 kmh 29.88 in1011.9 mb 0.00 in0.0 mm 0.00 in0.0 mm 0.00 in0.0 mm
06:16 AM 65.5°F18.6°C 55.4°F13.0°C 70% 6.0 mph W9.7 kmh W 15.0 mph24.1 kmh 29.87 in1011.5 mb 0.00 in0.0 mm 0.00 in0.0 mm 0.00 in0.0 mm
06:21 AM 65.7°F18.7°C 55.6°F13.1°C 70% 6.0 mph W9.7 kmh W 14.1 mph22.7 kmh 29.87 in1011.5 mb 0.00 in0.0 mm 0.00 in0.0 mm 0.00 in0.0 mm
06:26 AM 65.7°F18.7°C 55.6°F13.1°C 70% 6.9 mph WNW11.1 kmh WNW 14.1 mph22.7 kmh 29.87 in1011.5 mb 0.00 in0.0 mm 0.00 in0.0 mm 0.00 in0.0 mm
06:31 AM 65.8°F18.8°C 55.4°F13.0°C 69% 8.1 mph WNW13.0 kmh WNW 15.0 mph24.1 kmh 29.87 in1011.5 mb 0.00 in0.0 mm 0.00 in0.0 mm 0.00 in0.0 mm
06:36 AM 66.0°F18.9°C 55.6°F13.1°C 69% 8.1 mph W13.0 kmh W 15.0 mph24.1 kmh 29.88 in1011.9 mb 0.00 in0.0 mm 0.00 in0.0 mm 0.00 in0.0 mm
06:41 AM 66.0°F18.9°C 55.6°F13.1°C 69% 6.9 mph W11.1 kmh W 14.1 mph22.7 kmh 29.88 in1011.9 mb 0.00 in0.0 mm 0.00 in0.0 mm 0.00 in0.0 mm
06:46 AM 66.4°F19.1°C 55.9°F13.3°C 69% 8.1 mph W13.0 kmh W 14.1 mph22.7 kmh 29.88 in1011.9 mb 0.00 in0.0 mm 0.00 in0.0 mm 0.00 in0.0 mm
06:51 AM 66.4°F19.1°C 55.9°F13.3°C 69% 8.9 mph WNW14.3 kmh WNW 14.1 mph22.7 kmh 29.88 in1011.9 mb 0.00 in0.0 mm 0.00 in0.0 mm 0.00 in0.0 mm
06:56 AM 66.4°F19.1°C 55.9°F13.3°C 69% 8.1 mph W13.0 kmh W 14.1 mph22.7 kmh 29.88 in1011.9 mb 0.00 in0.0 mm 0.00 in0.0 mm 0.00 in0.0 mm
07:01 AM 66.4°F19.1°C 55.9°F13.3°C 69% 6.9 mph NW11.1 kmh NW 11.0 mph17.7 kmh 29.88 in1011.9 mb 0.00 in0.0 mm 0.00 in0.0 mm 0.00 in0.0 mm
07:06 AM 66.6°F19.2°C 56.1°F13.4°C 69% 6.9 mph WNW11.1 kmh WNW 13.0 mph20.9 kmh 29.88 in1011.9 mb 0.00 in0.0 mm 0.00 in0.0 mm 0.00 in0.0 mm
07:11 AM 66.6°F19.2°C 56.1°F13.4°C 69% 6.9 mph WNW11.1 kmh WNW 11.0 mph17.7 kmh 29.88 in1011.9 mb 0.00 in0.0 mm 0.00 in0.0 mm 0.00 in0.0 mm
07:16 AM 66.7°F19.3°C 55.8°F13.2°C 68% 6.0 mph W9.7 kmh W 14.1 mph22.7 kmh 29.88 in1011.9 mb 0.00 in0.0 mm 0.00 in0.0 mm 0.00 in0.0 mm
07:21 AM 66.7°F19.3°C 55.8°F13.2°C 68% 6.0 mph W9.7 kmh W 14.1 mph22.7 kmh 29.88 in1011.9 mb 0.00 in0.0 mm 0.00 in0.0 mm 0.00 in0.0 mm
07:26 AM 66.9°F19.4°C 55.9°F13.3°C 68% 4.9 mph NW7.9 kmh NW 11.0 mph17.7 kmh 29.88 in1011.9 mb 0.00 in0.0 mm 0.00 in0.0 mm 0.00 in0.0 mm
07:31 AM 66.9°F19.4°C 55.9°F13.3°C 68% 4.9 mph WNW7.9 kmh WNW 10.1 mph16.3 kmh 29.88 in1011.9 mb 0.00 in0.0 mm 0.00 in0.0 mm 0.00 in0.0 mm
07:36 AM 67.1°F19.5°C 55.8°F13.2°C 67% 4.9 mph NW7.9 kmh NW 12.1 mph19.5 kmh 29.88 in1011.9 mb 0.00 in0.0 mm 0.00 in0.0 mm 0.00 in0.0 mm
07:41 AM 67.1°F19.5°C 55.8°F13.2°C 67% 6.0 mph W9.7 kmh W 14.1 mph22.7 kmh 29.88 in1011.9 mb 0.00 in0.0 mm 0.00 in0.0 mm 0.00 in0.0 mm
07:46 AM 67.1°F19.5°C 55.8°F13.2°C 67% 6.9 mph WSW11.1 kmh WSW 17.0 mph27.4 kmh 29.88 in1011.9 mb 0.00 in0.0 mm 0.00 in0.0 mm 0.00 in0.0 mm
07:51 AM 67.3°F19.6°C 55.6°F13.1°C 66% 6.9 mph W11.1 kmh W 15.0 mph24.1 kmh 29.88 in1011.9 mb 0.00 in0.0 mm 0.00 in0.0 mm 0.00 in0.0 mm
07:56 AM 67.3°F19.6°C 55.6°F13.1°C 66% 8.1 mph W13.0 kmh W 15.0 mph24.1 kmh 29.88 in1011.9 mb 0.00 in0.0 mm 0.00 in0.0 mm 0.00 in0.0 mm
08:01 AM 67.5°F19.7°C 55.8°F13.2°C 66% 6.0 mph NW9.7 kmh NW 10.1 mph16.3 kmh 29.88 in1011.9 mb 0.00 in0.0 mm 0.00 in0.0 mm 0.00 in0.0 mm
08:06 AM 67.5°F19.7°C 55.8°F13.2°C 66% 4.9 mph WNW7.9 kmh WNW 12.1 mph19.5 kmh 29.88 in1011.9 mb 0.00 in0.0 mm 0.00 in0.0 mm 0.00 in0.0 mm
08:11 AM 67.6°F19.8°C 55.4°F13.0°C 65% 4.9 mph NW7.9 kmh NW 12.1 mph19.5 kmh 29.88 in1011.9 mb 0.00 in0.0 mm 0.00 in0.0 mm 0.00 in0.0 mm
08:16 AM 67.8°F19.9°C 55.6°F13.1°C 65% 4.9 mph W7.9 kmh W 10.1 mph16.3 kmh 29.89 in1012.2 mb 0.00 in0.0 mm 0.00 in0.0 mm 0.00 in0.0 mm
08:21 AM 68.2°F20.1°C 55.6°F13.1°C 64% 4.9 mph NW7.9 kmh NW 11.0 mph17.7 kmh 29.89 in1012.2 mb 0.00 in0.0 mm 0.00 in0.0 mm 0.00 in0.0 mm
08:26 AM 68.5°F20.3°C 55.4°F13.0°C 63% 6.0 mph NW9.7 kmh NW 13.0 mph20.9 kmh 29.89 in1012.2 mb 0.00 in0.0 mm 0.00 in0.0 mm 0.00 in0.0 mm
08:31 AM 68.7°F20.4°C 55.6°F13.1°C 63% 6.0 mph WNW9.7 kmh WNW 14.1 mph22.7 kmh 29.89 in1012.2 mb 0.00 in0.0 mm 0.00 in0.0 mm 0.00 in0.0 mm
08:36 AM 69.1°F20.6°C 55.6°F13.1°C 62% 6.9 mph N11.1 kmh N 14.1 mph22.7 kmh 29.89 in1012.2 mb 0.00 in0.0 mm 0.00 in0.0 mm 0.00 in0.0 mm
08:41 AM 69.4°F20.8°C 55.4°F13.0°C 61% 6.0 mph NW9.7 kmh NW 11.0 mph17.7 kmh 29.89 in1012.2 mb 0.00 in0.0 mm 0.00 in0.0 mm 0.00 in0.0 mm
08:46 AM 69.6°F20.9°C 55.0°F12.8°C 60% 6.0 mph N9.7 kmh N 14.1 mph22.7 kmh 29.90 in1012.5 mb 0.00 in0.0 mm 0.00 in0.0 mm 0.00 in0.0 mm
08:51 AM 70.0°F21.1°C 55.4°F13.0°C 60% 6.9 mph NW11.1 kmh NW 12.1 mph19.5 kmh 29.90 in1012.5 mb 0.00 in0.0 mm 0.00 in0.0 mm 0.00 in0.0 mm
08:56 AM 69.8°F21.0°C 54.9°F12.7°C 59% 8.1 mph NW13.0 kmh NW 14.1 mph22.7 kmh 29.91 in1012.9 mb 0.00 in0.0 mm 0.00 in0.0 mm 0.00 in0.0 mm
09:01 AM 69.8°F21.0°C 54.9°F12.7°C 59% 8.9 mph N14.3 kmh N 15.0 mph24.1 kmh 29.90 in1012.5 mb 0.00 in0.0 mm 0.00 in0.0 mm 0.00 in0.0 mm
09:06 AM 70.0°F21.1°C 55.0°F12.8°C 59% 8.1 mph NW13.0 kmh NW 16.1 mph25.9 kmh 29.91 in1012.9 mb 0.00 in0.0 mm 0.00 in0.0 mm 0.00 in0.0 mm
09:11 AM 70.5°F21.4°C 55.6°F13.1°C 59% 8.1 mph N13.0 kmh N 14.1 mph22.7 kmh 29.91 in1012.9 mb 0.00 in0.0 mm 0.00 in0.0 mm 0.00 in0.0 mm
09:16 AM 70.9°F21.6°C 55.4°F13.0°C 58% 8.1 mph NNE13.0 kmh NNE 16.1 mph25.9 kmh 29.91 in1012.9 mb 0.00 in0.0 mm 0.00 in0.0 mm 0.00 in0.0 mm
09:21 AM 71.2°F21.8°C 55.2°F12.9°C 57% 8.1 mph N13.0 kmh N 15.0 mph24.1 kmh 29.91 in1012.9 mb 0.00 in0.0 mm 0.00 in0.0 mm 0.00 in0.0 mm
09:26 AM 71.1°F21.7°C 55.0°F12.8°C 57% 8.1 mph N13.0 kmh N 14.1 mph22.7 kmh 29.91 in1012.9 mb 0.00 in0.0 mm 0.00 in0.0 mm 0.00 in0.0 mm
09:31 AM 70.9°F21.6°C 54.9°F12.7°C 57% 8.9 mph NNW14.3 kmh NNW 17.0 mph27.4 kmh 29.91 in1012.9 mb 0.00 in0.0 mm 0.00 in0.0 mm 0.00 in0.0 mm
09:36 AM 71.2°F21.8°C 55.2°F12.9°C 57% 10.1 mph NNE16.3 kmh NNE 14.1 mph22.7 kmh 29.91 in1012.9 mb 0.00 in0.0 mm 0.00 in0.0 mm 0.00 in0.0 mm
09:41 AM 71.6°F22.0°C 55.0°F12.8°C 56% 8.9 mph NNW14.3 kmh NNW 17.0 mph27.4 kmh 29.91 in1012.9 mb 0.00 in0.0 mm 0.00 in0.0 mm 0.00 in0.0 mm
09:46 AM 72.1°F22.3°C 55.6°F13.1°C 56% 10.1 mph N16.3 kmh N 16.1 mph25.9 kmh 29.91 in1012.9 mb 0.00 in0.0 mm 0.00 in0.0 mm 0.00 in0.0 mm
09:51 AM 72.1°F22.3°C 56.1°F13.4°C 57% 10.1 mph NNW16.3 kmh NNW 18.0 mph29.0 kmh 29.91 in1012.9 mb 0.00 in0.0 mm 0.00 in0.0 mm 0.00 in0.0 mm
09:56 AM 72.7°F22.6°C 56.5°F13.6°C 57% 8.9 mph NNW14.3 kmh NNW 16.1 mph25.9 kmh 29.91 in1012.9 mb 0.00 in0.0 mm 0.00 in0.0 mm 0.00 in0.0 mm
10:01 AM 72.9°F22.7°C 56.3°F13.5°C 56% 8.1 mph NE13.0 kmh NE 16.1 mph25.9 kmh 29.91 in1012.9 mb 0.00 in0.0 mm 0.00 in0.0 mm 0.00 in0.0 mm
10:06 AM 73.0°F22.8°C 55.9°F13.3°C 55% 8.9 mph NNW14.3 kmh NNW 17.0 mph27.4 kmh 29.91 in1012.9 mb 0.00 in0.0 mm 0.00 in0.0 mm 0.00 in0.0 mm
10:11 AM 72.7°F22.6°C 55.0°F12.8°C 54% 10.1 mph NNE16.3 kmh NNE 19.0 mph30.6 kmh 29.91 in1012.9 mb 0.00 in0.0 mm 0.00 in0.0 mm 0.00 in0.0 mm
10:16 AM 73.0°F22.8°C 55.9°F13.3°C 55% 10.1 mph NW16.3 kmh NW 14.1 mph22.7 kmh 29.91 in1012.9 mb 0.00 in0.0 mm 0.00 in0.0 mm 0.00 in0.0 mm
10:21 AM 73.2°F22.9°C 55.6°F13.1°C 54% 8.1 mph NE13.0 kmh NE 15.0 mph24.1 kmh 29.91 in1012.9 mb 0.00 in0.0 mm 0.00 in0.0 mm 0.00 in0.0 mm
10:26 AM 73.2°F22.9°C 55.6°F13.1°C 54% 6.9 mph N11.1 kmh N 15.0 mph24.1 kmh 29.91 in1012.9 mb 0.00 in0.0 mm 0.00 in0.0 mm 0.00 in0.0 mm
10:31 AM 73.6°F23.1°C 55.9°F13.3°C 54% 6.9 mph NE11.1 kmh NE 14.1 mph22.7 kmh 29.91 in1012.9 mb 0.00 in0.0 mm 0.00 in0.0 mm 0.00 in0.0 mm
10:36 AM 73.8°F23.2°C 56.1°F13.4°C 54% 8.1 mph N13.0 kmh N 16.1 mph25.9 kmh 29.91 in1012.9 mb 0.00 in0.0 mm 0.00 in0.0 mm 0.00 in0.0 mm
10:41 AM 73.8°F23.2°C 55.6°F13.1°C 53% 8.9 mph NW14.3 kmh NW 15.0 mph24.1 kmh 29.90 in1012.5 mb 0.00 in0.0 mm 0.00 in0.0 mm 0.00 in0.0 mm
10:46 AM 73.9°F23.3°C 55.8°F13.2°C 53% 10.1 mph 16.3 kmh 16.1 mph25.9 kmh 29.90 in1012.5 mb 0.00 in0.0 mm 0.00 in0.0 mm 0.00 in0.0 mm
10:51 AM 74.1°F23.4°C 55.4°F13.0°C 52% 10.1 mph NNW16.3 kmh NNW 15.0 mph24.1 kmh 29.90 in1012.5 mb 0.00 in0.0 mm 0.00 in0.0 mm 0.00 in0.0 mm
10:56 AM 73.9°F23.3°C 55.2°F12.9°C 52% 8.9 mph NNW14.3 kmh NNW 13.0 mph20.9 kmh 29.90 in1012.5 mb 0.00 in0.0 mm 0.00 in0.0 mm 0.00 in0.0 mm
11:01 AM 74.1°F23.4°C 54.9°F12.7°C 51% 6.9 mph 11.1 kmh 13.0 mph20.9 kmh 29.91 in1012.9 mb 0.00 in0.0 mm 0.00 in0.0 mm 0.00 in0.0 mm
11:06 AM 73.8°F23.2°C 55.0°F12.8°C 52% 6.9 mph NNW11.1 kmh NNW 14.1 mph22.7 kmh 29.90 in1012.5 mb 0.00 in0.0 mm 0.00 in0.0 mm 0.00 in0.0 mm
11:11 AM 73.8°F23.2°C 57.0°F13.9°C 56% 8.9 mph N14.3 kmh N 19.0 mph30.6 kmh 29.91 in1012.9 mb 0.00 in0.0 mm 0.00 in0.0 mm 0.00 in0.0 mm
11:16 AM 73.2°F22.9°C 57.0°F13.9°C 57% 8.9 mph NNE14.3 kmh NNE 14.1 mph22.7 kmh 29.90 in1012.5 mb 0.00 in0.0 mm 0.00 in0.0 mm 0.00 in0.0 mm
11:21 AM 73.0°F22.8°C 57.4°F14.1°C 58% 8.1 mph NNW13.0 kmh NNW 14.1 mph22.7 kmh 29.91 in1012.9 mb 0.00 in0.0 mm 0.00 in0.0 mm 0.00 in0.0 mm
11:26 AM 73.4°F23.0°C 56.7°F13.7°C 56% 8.9 mph N14.3 kmh N 17.9 mph28.8 kmh 29.91 in1012.9 mb 0.00 in0.0 mm 0.00 in0.0 mm 0.00 in0.0 mm
11:31 AM 73.6°F23.1°C 57.9°F14.4°C 58% 8.9 mph NE14.3 kmh NE 17.9 mph28.8 kmh 29.91 in1012.9 mb 0.00 in0.0 mm 0.00 in0.0 mm 0.00 in0.0 mm
11:36 AM 73.2°F22.9°C 56.7°F13.7°C 56% 10.1 mph NW16.3 kmh NW 17.0 mph27.4 kmh 29.91 in1012.9 mb 0.00 in0.0 mm 0.00 in0.0 mm 0.00 in0.0 mm
11:41 AM 73.4°F23.0°C 55.8°F13.2°C 54% 10.1 mph N16.3 kmh N 16.1 mph25.9 kmh 29.91 in1012.9 mb 0.00 in0.0 mm 0.00 in0.0 mm 0.00 in0.0 mm
11:46 AM 73.0°F22.8°C 55.9°F13.3°C 55% 8.9 mph NNW14.3 kmh NNW 14.1 mph22.7 kmh 29.91 in1012.9 mb 0.00 in0.0 mm 0.00 in0.0 mm 0.00 in0.0 mm
11:51 AM 73.4°F23.0°C 55.8°F13.2°C 54% 8.1 mph NNE13.0 kmh NNE 15.0 mph24.1 kmh 29.91 in1012.9 mb 0.00 in0.0 mm 0.00 in0.0 mm 0.00 in0.0 mm
11:56 AM 73.2°F22.9°C 57.6°F14.2°C 58% 8.1 mph N13.0 kmh N 17.0 mph27.4 kmh 29.91 in1012.9 mb 0.00 in0.0 mm 0.00 in0.0 mm 0.00 in0.0 mm
12:01 PM 73.2°F22.9°C 57.6°F14.2°C 58% 10.1 mph NE16.3 kmh NE 19.0 mph30.6 kmh 29.91 in1012.9 mb 0.00 in0.0 mm 0.00 in0.0 mm 0.00 in0.0 mm
12:06 PM 72.9°F22.7°C 58.1°F14.5°C 60% 11.0 mph N17.7 kmh N 20.0 mph32.2 kmh 29.91 in1012.9 mb 0.00 in0.0 mm 0.00 in0.0 mm 0.00 in0.0 mm
12:11 PM 72.9°F22.7°C 57.2°F14.0°C 58% 11.0 mph 17.7 kmh 17.9 mph28.8 kmh 29.91 in1012.9 mb 0.00 in0.0 mm 0.00 in0.0 mm 0.00 in0.0 mm
12:16 PM 72.9°F22.7°C 58.1°F14.5°C 60% 11.0 mph N17.7 kmh N 19.0 mph30.6 kmh 29.91 in1012.9 mb 0.00 in0.0 mm 0.00 in0.0 mm 0.00 in0.0 mm
12:21 PM 73.4°F23.0°C 57.7°F14.3°C 58% 12.1 mph NE19.5 kmh NE 22.0 mph35.4 kmh 29.91 in1012.9 mb 0.00 in0.0 mm 0.00 in0.0 mm 0.00 in0.0 mm
12:26 PM 73.6°F23.1°C 58.3°F14.6°C 59% 11.0 mph NNE17.7 kmh NNE 17.9 mph28.8 kmh 29.91 in1012.9 mb 0.00 in0.0 mm 0.00 in0.0 mm 0.00 in0.0 mm
12:31 PM 73.8°F23.2°C 58.5°F14.7°C 59% 11.0 mph NE17.7 kmh NE 21.9 mph35.2 kmh 29.91 in1012.9 mb 0.00 in0.0 mm 0.00 in0.0 mm 0.00 in0.0 mm
12:36 PM 73.4°F23.0°C 58.3°F14.6°C 59% 12.1 mph NNE19.5 kmh NNE 21.9 mph35.2 kmh 29.91 in1012.9 mb 0.00 in0.0 mm 0.00 in0.0 mm 0.00 in0.0 mm
12:41 PM 73.8°F23.2°C 58.5°F14.7°C 59% 13.0 mph NNE20.9 kmh NNE 19.0 mph30.6 kmh 29.92 in1013.2 mb 0.00 in0.0 mm 0.00 in0.0 mm 0.00 in0.0 mm
12:46 PM 73.9°F23.3°C 58.3°F14.6°C 58% 13.0 mph NE20.9 kmh NE 21.9 mph35.2 kmh 29.91 in1012.9 mb 0.00 in0.0 mm 0.00 in0.0 mm 0.00 in0.0 mm
12:51 PM 73.8°F23.2°C 57.0°F13.9°C 56% 13.0 mph NNE20.9 kmh NNE 23.0 mph37.0 kmh 29.91 in1012.9 mb 0.00 in0.0 mm 0.00 in0.0 mm 0.00 in0.0 mm
12:56 PM 73.9°F23.3°C 57.7°F14.3°C 57% 13.0 mph NE20.9 kmh NE 21.0 mph33.8 kmh 29.91 in1012.9 mb 0.00 in0.0 mm 0.00 in0.0 mm 0.00 in0.0 mm
01:01 PM 73.9°F23.3°C 57.2°F14.0°C 56% 13.0 mph N20.9 kmh N 23.0 mph37.0 kmh 29.92 in1013.2 mb 0.00 in0.0 mm 0.00 in0.0 mm 0.00 in0.0 mm
01:06 PM 74.1°F23.4°C 57.4°F14.1°C 56% 13.0 mph 20.9 kmh 23.0 mph37.0 kmh 29.91 in1012.9 mb 0.00 in0.0 mm 0.00 in0.0 mm 0.00 in0.0 mm
01:11 PM 74.5°F23.6°C 58.8°F14.9°C 58% 12.1 mph NNE19.5 kmh NNE 17.9 mph28.8 kmh 29.91 in1012.9 mb 0.00 in0.0 mm 0.00 in0.0 mm 0.00 in0.0 mm
01:16 PM 74.3°F23.5°C 57.6°F14.2°C 56% 13.0 mph N20.9 kmh N 21.0 mph33.8 kmh 29.91 in1012.9 mb 0.00 in0.0 mm 0.00 in0.0 mm 0.00 in0.0 mm
01:21 PM 74.5°F23.6°C 57.7°F14.3°C 56% 13.0 mph NE20.9 kmh NE 21.0 mph33.8 kmh 29.91 in1012.9 mb 0.00 in0.0 mm 0.00 in0.0 mm 0.00 in0.0 mm
01:26 PM 74.3°F23.5°C 57.0°F13.9°C 55% 13.0 mph NNE20.9 kmh NNE 21.9 mph35.2 kmh 29.92 in1013.2 mb 0.00 in0.0 mm 0.00 in0.0 mm 0.00 in0.0 mm
01:32 PM 74.1°F23.4°C 56.8°F13.8°C 55% 13.0 mph NNE20.9 kmh NNE 21.9 mph35.2 kmh 29.91 in1012.9 mb 0.00 in0.0 mm 0.00 in0.0 mm 0.00 in0.0 mm
01:37 PM 74.1°F23.4°C 56.8°F13.8°C 55% 13.0 mph NE20.9 kmh NE 19.9 mph32.0 kmh 29.91 in1012.9 mb 0.00 in0.0 mm 0.00 in0.0 mm 0.00 in0.0 mm
01:42 PM 74.3°F23.5°C 58.6°F14.8°C 58% 13.0 mph NNE20.9 kmh NNE 19.0 mph30.6 kmh 29.91 in1012.9 mb 0.00 in0.0 mm 0.00 in0.0 mm 0.00 in0.0 mm
01:47 PM 74.1°F23.4°C 58.5°F14.7°C 58% 13.0 mph NNE20.9 kmh NNE 21.0 mph33.8 kmh 29.91 in1012.9 mb 0.00 in0.0 mm 0.00 in0.0 mm 0.00 in0.0 mm
01:52 PM 74.3°F23.5°C 58.1°F14.5°C 57% 13.0 mph NNE20.9 kmh NNE 17.9 mph28.8 kmh 29.91 in1012.9 mb 0.00 in0.0 mm 0.00 in0.0 mm 0.00 in0.0 mm
01:57 PM 74.7°F23.7°C 58.8°F14.9°C 58% 11.0 mph NE17.7 kmh NE 19.0 mph30.6 kmh 29.91 in1012.9 mb 0.00 in0.0 mm 0.00 in0.0 mm 0.00 in0.0 mm
02:02 PM 74.8°F23.8°C 59.5°F15.3°C 59% 11.0 mph NNW17.7 kmh NNW 17.0 mph27.4 kmh 29.91 in1012.9 mb 0.00 in0.0 mm 0.00 in0.0 mm 0.00 in0.0 mm
02:07 PM 74.8°F23.8°C 58.6°F14.8°C 57% 11.0 mph N17.7 kmh N 18.0 mph29.0 kmh 29.91 in1012.9 mb 0.00 in0.0 mm 0.00 in0.0 mm 0.00 in0.0 mm
02:12 PM 74.7°F23.7°C 58.8°F14.9°C 58% 12.1 mph NE19.5 kmh NE 20.0 mph32.2 kmh 29.91 in1012.9 mb 0.00 in0.0 mm 0.00 in0.0 mm 0.00 in0.0 mm
02:17 PM 74.8°F23.8°C 59.0°F15.0°C 58% 12.1 mph NNE19.5 kmh NNE 17.9 mph28.8 kmh 29.91 in1012.9 mb 0.00 in0.0 mm 0.00 in0.0 mm 0.00 in0.0 mm
02:22 PM 74.8°F23.8°C 59.0°F15.0°C 58% 12.1 mph N19.5 kmh N 19.0 mph30.6 kmh 29.91 in1012.9 mb 0.00 in0.0 mm 0.00 in0.0 mm 0.00 in0.0 mm
02:27 PM 74.5°F23.6°C 58.3°F14.6°C 57% 14.1 mph NE22.7 kmh NE 22.0 mph35.4 kmh 29.92 in1013.2 mb 0.00 in0.0 mm 0.00 in0.0 mm 0.00 in0.0 mm
02:32 PM 74.1°F23.4°C 58.8°F14.9°C 59% 14.1 mph NE22.7 kmh NE 23.0 mph37.0 kmh 29.92 in1013.2 mb 0.00 in0.0 mm 0.00 in0.0 mm 0.00 in0.0 mm
02:37 PM 74.3°F23.5°C 58.6°F14.8°C 58% 14.1 mph NE22.7 kmh NE 19.9 mph32.0 kmh 29.92 in1013.2 mb 0.00 in0.0 mm 0.00 in0.0 mm 0.00 in0.0 mm
02:42 PM 74.1°F23.4°C 57.9°F14.4°C 57% 14.1 mph NNE22.7 kmh NNE 21.0 mph33.8 kmh 29.92 in1013.2 mb 0.00 in0.0 mm 0.00 in0.0 mm 0.00 in0.0 mm
02:47 PM 74.1°F23.4°C 57.9°F14.4°C 57% 14.1 mph NNE22.7 kmh NNE 21.9 mph35.2 kmh 29.91 in1012.9 mb 0.00 in0.0 mm 0.00 in0.0 mm 0.00 in0.0 mm
02:52 PM 74.3°F23.5°C 58.1°F14.5°C 57% 14.1 mph NNE22.7 kmh NNE 23.0 mph37.0 kmh 29.91 in1012.9 mb 0.00 in0.0 mm 0.00 in0.0 mm 0.00 in0.0 mm
02:57 PM 74.5°F23.6°C 56.7°F13.7°C 54% 14.1 mph N22.7 kmh N 21.9 mph35.2 kmh 29.91 in1012.9 mb 0.00 in0.0 mm 0.00 in0.0 mm 0.00 in0.0 mm
03:02 PM 74.5°F23.6°C 57.2°F14.0°C 55% 15.0 mph N24.1 kmh N 23.0 mph37.0 kmh 29.91 in1012.9 mb 0.00 in0.0 mm 0.00 in0.0 mm 0.00 in0.0 mm
03:07 PM 74.5°F23.6°C 57.2°F14.0°C 55% 14.1 mph NE22.7 kmh NE 21.0 mph33.8 kmh 29.92 in1013.2 mb 0.00 in0.0 mm 0.00 in0.0 mm 0.00 in0.0 mm
03:12 PM 74.7°F23.7°C 57.9°F14.4°C 56% 14.1 mph NNE22.7 kmh NNE 21.0 mph33.8 kmh 29.92 in1013.2 mb 0.00 in0.0 mm 0.00 in0.0 mm 0.00 in0.0 mm
03:17 PM 74.7°F23.7°C 57.4°F14.1°C 55% 13.0 mph NNW20.9 kmh NNW 23.0 mph37.0 kmh 29.92 in1013.2 mb 0.00 in0.0 mm 0.00 in0.0 mm 0.00 in0.0 mm
03:22 PM 74.7°F23.7°C 56.5°F13.6°C 53% 13.0 mph N20.9 kmh N 21.0 mph33.8 kmh 29.91 in1012.9 mb 0.00 in0.0 mm 0.00 in0.0 mm 0.00 in0.0 mm
03:27 PM 74.7°F23.7°C 57.9°F14.4°C 56% 13.0 mph NNE20.9 kmh NNE 19.0 mph30.6 kmh 29.92 in1013.2 mb 0.00 in0.0 mm 0.00 in0.0 mm 0.00 in0.0 mm
03:32 PM 74.7°F23.7°C 57.9°F14.4°C 56% 12.1 mph 19.5 kmh 19.0 mph30.6 kmh 29.92 in1013.2 mb 0.00 in0.0 mm 0.00 in0.0 mm 0.00 in0.0 mm
03:37 PM 74.7°F23.7°C 56.8°F13.8°C 54% 12.1 mph NNW19.5 kmh NNW 19.0 mph30.6 kmh 29.91 in1012.9 mb 0.00 in0.0 mm 0.00 in0.0 mm 0.00 in0.0 mm
03:42 PM 74.7°F23.7°C 57.4°F14.1°C 55% 13.0 mph NNW20.9 kmh NNW 20.0 mph32.2 kmh 29.92 in1013.2 mb 0.00 in0.0 mm 0.00 in0.0 mm 0.00 in0.0 mm
03:47 PM 74.7°F23.7°C 56.8°F13.8°C 54% 13.0 mph N20.9 kmh N 19.0 mph30.6 kmh 29.91 in1012.9 mb 0.00 in0.0 mm 0.00 in0.0 mm 0.00 in0.0 mm
03:52 PM 74.8°F23.8°C 56.5°F13.6°C 53% 11.0 mph N17.7 kmh N 17.0 mph27.4 kmh 29.92 in1013.2 mb 0.00 in0.0 mm 0.00 in0.0 mm 0.00 in0.0 mm
03:57 PM 74.8°F23.8°C 57.0°F13.9°C 54% 11.0 mph N17.7 kmh N 19.0 mph30.6 kmh 29.91 in1012.9 mb 0.00 in0.0 mm 0.00 in0.0 mm 0.00 in0.0 mm
04:02 PM 75.0°F23.9°C 57.7°F14.3°C 55% 11.0 mph NE17.7 kmh NE 17.0 mph27.4 kmh 29.91 in1012.9 mb 0.00 in0.0 mm 0.00 in0.0 mm 0.00 in0.0 mm
04:07 PM 75.0°F23.9°C 57.7°F14.3°C 55% 10.1 mph NE16.3 kmh NE 17.0 mph27.4 kmh 29.91 in1012.9 mb 0.00 in0.0 mm 0.00 in0.0 mm 0.00 in0.0 mm
04:12 PM 74.7°F23.7°C 56.5°F13.6°C 53% 12.1 mph 19.5 kmh 21.0 mph33.8 kmh 29.91 in1012.9 mb 0.00 in0.0 mm 0.00 in0.0 mm 0.00 in0.0 mm
04:17 PM 74.7°F23.7°C 56.8°F13.8°C 54% 12.1 mph N19.5 kmh N 17.9 mph28.8 kmh 29.91 in1012.9 mb 0.00 in0.0 mm 0.00 in0.0 mm 0.00 in0.0 mm
04:22 PM 74.8°F23.8°C 56.5°F13.6°C 53% 11.0 mph N17.7 kmh N 17.0 mph27.4 kmh 29.92 in1013.2 mb 0.00 in0.0 mm 0.00 in0.0 mm 0.00 in0.0 mm
04:27 PM 74.8°F23.8°C 56.5°F13.6°C 53% 10.1 mph NNE16.3 kmh NNE 17.9 mph28.8 kmh 29.92 in1013.2 mb 0.00 in0.0 mm 0.00 in0.0 mm 0.00 in0.0 mm
04:32 PM 74.7°F23.7°C 56.5°F13.6°C 53% 11.0 mph NNE17.7 kmh NNE 20.0 mph32.2 kmh 29.91 in1012.9 mb 0.00 in0.0 mm 0.00 in0.0 mm 0.00 in0.0 mm
04:37 PM 74.7°F23.7°C 56.5°F13.6°C 53% 11.0 mph NE17.7 kmh NE 17.0 mph27.4 kmh 29.92 in1013.2 mb 0.00 in0.0 mm 0.00 in0.0 mm 0.00 in0.0 mm
04:42 PM 74.8°F23.8°C 57.0°F13.9°C 54% 11.0 mph N17.7 kmh N 15.0 mph24.1 kmh 29.92 in1013.2 mb 0.00 in0.0 mm 0.00 in0.0 mm 0.00 in0.0 mm
04:47 PM 74.8°F23.8°C 57.0°F13.9°C 54% 10.1 mph NNE16.3 kmh NNE 18.0 mph29.0 kmh 29.92 in1013.2 mb 0.00 in0.0 mm 0.00 in0.0 mm 0.00 in0.0 mm
04:52 PM 74.8°F23.8°C 57.6°F14.2°C 55% 11.0 mph NNE17.7 kmh NNE 17.9 mph28.8 kmh 29.92 in1013.2 mb 0.00 in0.0 mm 0.00 in0.0 mm 0.00 in0.0 mm
04:57 PM 74.8°F23.8°C 57.6°F14.2°C 55% 10.1 mph NE16.3 kmh NE 17.9 mph28.8 kmh 29.92 in1013.2 mb 0.00 in0.0 mm 0.00 in0.0 mm 0.00 in0.0 mm
05:02 PM 74.8°F23.8°C 57.6°F14.2°C 55% 10.1 mph NNE16.3 kmh NNE 16.1 mph25.9 kmh 29.92 in1013.2 mb 0.00 in0.0 mm 0.00 in0.0 mm 0.00 in0.0 mm
05:07 PM 75.0°F23.9°C 58.8°F14.9°C 57% 8.9 mph NE14.3 kmh NE 14.1 mph22.7 kmh 29.92 in1013.2 mb 0.00 in0.0 mm 0.00 in0.0 mm 0.00 in0.0 mm
05:12 PM 74.8°F23.8°C 58.1°F14.5°C 56% 8.9 mph N14.3 kmh N 17.0 mph27.4 kmh 29.92 in1013.2 mb 0.00 in0.0 mm 0.00 in0.0 mm 0.00 in0.0 mm
05:17 PM 74.8°F23.8°C 58.1°F14.5°C 56% 10.1 mph NNE16.3 kmh NNE 17.0 mph27.4 kmh 29.92 in1013.2 mb 0.00 in0.0 mm 0.00 in0.0 mm 0.00 in0.0 mm
05:22 PM 74.8°F23.8°C 58.1°F14.5°C 56% 8.9 mph N14.3 kmh N 14.1 mph22.7 kmh 29.92 in1013.2 mb 0.00 in0.0 mm 0.00 in0.0 mm 0.00 in0.0 mm
05:27 PM 74.8°F23.8°C 59.0°F15.0°C 58% 8.9 mph NE14.3 kmh NE 14.1 mph22.7 kmh 29.92 in1013.2 mb 0.00 in0.0 mm 0.00 in0.0 mm 0.00 in0.0 mm
05:32 PM 74.8°F23.8°C 59.0°F15.0°C 58% 8.1 mph NNE13.0 kmh NNE 17.0 mph27.4 kmh 29.91 in1012.9 mb 0.00 in0.0 mm 0.00 in0.0 mm 0.00 in0.0 mm
05:37 PM 74.8°F23.8°C 57.6°F14.2°C 55% 8.1 mph N13.0 kmh N 17.0 mph27.4 kmh 29.91 in1012.9 mb 0.00 in0.0 mm 0.00 in0.0 mm 0.00 in0.0 mm
05:42 PM 75.0°F23.9°C 55.0°F12.8°C 50% 8.1 mph N13.0 kmh N 12.1 mph19.5 kmh 29.91 in1012.9 mb 0.00 in0.0 mm 0.00 in0.0 mm 0.00 in0.0 mm
05:47 PM 75.4°F24.1°C 53.8°F12.1°C 47% 6.0 mph N9.7 kmh N 10.1 mph16.3 kmh 29.91 in1012.9 mb 0.00 in0.0 mm 0.00 in0.0 mm 0.00 in0.0 mm
05:52 PM 75.4°F24.1°C 53.8°F12.1°C 47% 4.9 mph N7.9 kmh N 8.9 mph14.3 kmh 29.92 in1013.2 mb 0.00 in0.0 mm 0.00 in0.0 mm 0.00 in0.0 mm
05:57 PM 75.4°F24.1°C 54.3°F12.4°C 48% 4.0 mph NNW6.4 kmh NNW 8.1 mph13.0 kmh 29.91 in1012.9 mb 0.00 in0.0 mm 0.00 in0.0 mm 0.00 in0.0 mm
06:02 PM 75.2°F24.0°C 54.1°F12.3°C 48% 4.0 mph N6.4 kmh N 8.1 mph13.0 kmh 29.91 in1012.9 mb 0.00 in0.0 mm 0.00 in0.0 mm 0.00 in0.0 mm
06:07 PM 75.0°F23.9°C 54.0°F12.2°C 48% 4.0 mph NW6.4 kmh NW 10.1 mph16.3 kmh 29.91 in1012.9 mb 0.00 in0.0 mm 0.00 in0.0 mm 0.00 in0.0 mm
06:12 PM 75.0°F23.9°C 54.0°F12.2°C 48% 4.0 mph N6.4 kmh N 8.9 mph14.3 kmh 29.92 in1013.2 mb 0.00 in0.0 mm 0.00 in0.0 mm 0.00 in0.0 mm
06:17 PM 74.8°F23.8°C 53.2°F11.8°C 47% 4.0 mph WNW6.4 kmh WNW 8.9 mph14.3 kmh 29.92 in1013.2 mb 0.00 in0.0 mm 0.00 in0.0 mm 0.00 in0.0 mm
06:22 PM 74.8°F23.8°C 53.2°F11.8°C 47% 4.9 mph N7.9 kmh N 11.0 mph17.7 kmh 29.92 in1013.2 mb 0.00 in0.0 mm 0.00 in0.0 mm 0.00 in0.0 mm
06:27 PM 74.7°F23.7°C 53.1°F11.7°C 47% 4.0 mph NW6.4 kmh NW 6.9 mph11.1 kmh 29.92 in1013.2 mb 0.00 in0.0 mm 0.00 in0.0 mm 0.00 in0.0 mm
06:32 PM 74.5°F23.6°C 52.9°F11.6°C 47% 2.9 mph NNW4.7 kmh NNW 8.0 mph12.9 kmh 29.92 in1013.2 mb 0.00 in0.0 mm 0.00 in0.0 mm 0.00 in0.0 mm
06:37 PM 74.1°F23.4°C 53.2°F11.8°C 48% 2.9 mph NNW4.7 kmh NNW 6.0 mph9.7 kmh 29.92 in1013.2 mb 0.00 in0.0 mm 0.00 in0.0 mm 0.00 in0.0 mm
06:42 PM 73.9°F23.3°C 53.1°F11.7°C 48% 2.9 mph NNW4.7 kmh NNW 8.1 mph13.0 kmh 29.92 in1013.2 mb 0.00 in0.0 mm 0.00 in0.0 mm 0.00 in0.0 mm
06:47 PM 73.9°F23.3°C 53.6°F12.0°C 49% 2.9 mph NNW4.7 kmh NNW 4.0 mph6.4 kmh 29.92 in1013.2 mb 0.00 in0.0 mm 0.00 in0.0 mm 0.00 in0.0 mm
06:52 PM 73.8°F23.2°C 54.0°F12.2°C 50% 2.9 mph NNW4.7 kmh NNW 8.1 mph13.0 kmh 29.92 in1013.2 mb 0.00 in0.0 mm 0.00 in0.0 mm 0.00 in0.0 mm
06:57 PM 73.6°F23.1°C 54.3°F12.4°C 51% 2.9 mph NNW4.7 kmh NNW 4.9 mph7.9 kmh 29.93 in1013.5 mb 0.00 in0.0 mm 0.00 in0.0 mm 0.00 in0.0 mm
07:02 PM 73.4°F23.0°C 54.7°F12.6°C 52% 2.0 mph NNW3.2 kmh NNW 6.0 mph9.7 kmh 29.93 in1013.5 mb 0.00 in0.0 mm 0.00 in0.0 mm 0.00 in0.0 mm
07:07 PM 73.2°F22.9°C 55.0°F12.8°C 53% 2.0 mph N3.2 kmh N 8.1 mph13.0 kmh 29.93 in1013.5 mb 0.00 in0.0 mm 0.00 in0.0 mm 0.00 in0.0 mm
07:12 PM 73.2°F22.9°C 55.0°F12.8°C 53% 2.9 mph 4.7 kmh 8.1 mph13.0 kmh 29.93 in1013.5 mb 0.00 in0.0 mm 0.00 in0.0 mm 0.00 in0.0 mm
07:17 PM 73.0°F22.8°C 54.9°F12.7°C 53% 4.0 mph N6.4 kmh N 8.9 mph14.3 kmh 29.93 in1013.5 mb 0.00 in0.0 mm 0.00 in0.0 mm 0.00 in0.0 mm
07:22 PM 73.0°F22.8°C 54.9°F12.7°C 53% 2.9 mph NNW4.7 kmh NNW 8.9 mph14.3 kmh 29.93 in1013.5 mb 0.00 in0.0 mm 0.00 in0.0 mm 0.00 in0.0 mm
07:27 PM 72.9°F22.7°C 54.7°F12.6°C 53% 2.9 mph 4.7 kmh 6.0 mph9.7 kmh 29.93 in1013.5 mb 0.00 in0.0 mm 0.00 in0.0 mm 0.00 in0.0 mm
07:32 PM 72.9°F22.7°C 54.7°F12.6°C 53% 2.9 mph NNW4.7 kmh NNW 8.1 mph13.0 kmh 29.94 in1013.9 mb 0.00 in0.0 mm 0.00 in0.0 mm 0.00 in0.0 mm
07:37 PM 72.7°F22.6°C 55.0°F12.8°C 54% 2.9 mph NW4.7 kmh NW 6.9 mph11.1 kmh 29.94 in1013.9 mb 0.00 in0.0 mm 0.00 in0.0 mm 0.00 in0.0 mm
07:42 PM 72.7°F22.6°C 55.0°F12.8°C 54% 2.9 mph NNW4.7 kmh NNW 6.9 mph11.1 kmh 29.95 in1014.2 mb 0.00 in0.0 mm 0.00 in0.0 mm 0.00 in0.0 mm
07:47 PM 72.5°F22.5°C 54.9°F12.7°C 54% 2.9 mph NW4.7 kmh NW 6.0 mph9.7 kmh 29.95 in1014.2 mb 0.00 in0.0 mm 0.00 in0.0 mm 0.00 in0.0 mm
07:52 PM 72.3°F22.4°C 54.7°F12.6°C 54% 2.9 mph NNW4.7 kmh NNW 8.1 mph13.0 kmh 29.95 in1014.2 mb 0.00 in0.0 mm 0.00 in0.0 mm 0.00 in0.0 mm
07:57 PM 72.1°F22.3°C 54.5°F12.5°C 54% 2.0 mph NW3.2 kmh NW 4.9 mph7.9 kmh 29.95 in1014.2 mb 0.00 in0.0 mm 0.00 in0.0 mm 0.00 in0.0 mm
08:02 PM 72.0°F22.2°C 54.9°F12.7°C 55% 2.0 mph NW3.2 kmh NW 4.9 mph7.9 kmh 29.95 in1014.2 mb 0.00 in0.0 mm 0.00 in0.0 mm 0.00 in0.0 mm
08:07 PM 71.6°F22.0°C 55.0°F12.8°C 56% 2.0 mph NW3.2 kmh NW 4.0 mph6.4 kmh 29.95 in1014.2 mb 0.00 in0.0 mm 0.00 in0.0 mm 0.00 in0.0 mm
08:12 PM 71.2°F21.8°C 55.2°F12.9°C 57% 0.9 mph NW1.4 kmh NW 2.9 mph4.7 kmh 29.95 in1014.2 mb 0.00 in0.0 mm 0.00 in0.0 mm 0.00 in0.0 mm
08:17 PM 71.1°F21.7°C 55.6°F13.1°C 58% 0.9 mph NW1.4 kmh NW 2.9 mph4.7 kmh 29.95 in1014.2 mb 0.00 in0.0 mm 0.00 in0.0 mm 0.00 in0.0 mm
08:22 PM 70.9°F21.6°C 55.4°F13.0°C 58% 0.9 mph NW1.4 kmh NW 4.0 mph6.4 kmh 29.95 in1014.2 mb 0.00 in0.0 mm 0.00 in0.0 mm 0.00 in0.0 mm
08:27 PM 70.7°F21.5°C 55.2°F12.9°C 58% 2.0 mph NW3.2 kmh NW 6.0 mph9.7 kmh 29.96 in1014.6 mb 0.00 in0.0 mm 0.00 in0.0 mm 0.00 in0.0 mm
08:32 PM 70.7°F21.5°C 55.2°F12.9°C 58% 2.0 mph WNW3.2 kmh WNW 4.0 mph6.4 kmh 29.96 in1014.6 mb 0.00 in0.0 mm 0.00 in0.0 mm 0.00 in0.0 mm
08:37 PM 70.7°F21.5°C 55.2°F12.9°C 58% 2.0 mph NW3.2 kmh NW 6.0 mph9.7 kmh 29.96 in1014.6 mb 0.00 in0.0 mm 0.00 in0.0 mm 0.00 in0.0 mm
08:42 PM 70.7°F21.5°C 55.2°F12.9°C 58% 2.0 mph WNW3.2 kmh WNW 6.0 mph9.7 kmh 29.96 in1014.6 mb 0.00 in0.0 mm 0.00 in0.0 mm 0.00 in0.0 mm
08:47 PM 70.7°F21.5°C 55.2°F12.9°C 58% 2.0 mph WNW3.2 kmh WNW 4.0 mph6.4 kmh 29.96 in1014.6 mb 0.00 in0.0 mm 0.00 in0.0 mm 0.00 in0.0 mm
08:52 PM 70.5°F21.4°C 55.0°F12.8°C 58% 2.0 mph NW3.2 kmh NW 5.0 mph8.0 kmh 29.96 in1014.6 mb 0.00 in0.0 mm 0.00 in0.0 mm 0.00 in0.0 mm
08:57 PM 70.5°F21.4°C 55.0°F12.8°C 58% 2.0 mph WNW3.2 kmh WNW 8.1 mph13.0 kmh 29.96 in1014.6 mb 0.00 in0.0 mm 0.00 in0.0 mm 0.00 in0.0 mm
09:02 PM 70.5°F21.4°C 55.0°F12.8°C 58% 2.9 mph NW4.7 kmh NW 8.1 mph13.0 kmh 29.96 in1014.6 mb 0.00 in0.0 mm 0.00 in0.0 mm 0.00 in0.0 mm
09:07 PM 70.5°F21.4°C 55.0°F12.8°C 58% 2.9 mph W4.7 kmh W 10.1 mph16.3 kmh 29.96 in1014.6 mb 0.00 in0.0 mm 0.00 in0.0 mm 0.00 in0.0 mm
09:12 PM 70.5°F21.4°C 55.0°F12.8°C 58% 4.0 mph WSW6.4 kmh WSW 10.1 mph16.3 kmh 29.96 in1014.6 mb 0.00 in0.0 mm 0.00 in0.0 mm 0.00 in0.0 mm
09:17 PM 70.3°F21.3°C 54.9°F12.7°C 58% 4.9 mph W7.9 kmh W 8.9 mph14.3 kmh 29.96 in1014.6 mb 0.00 in0.0 mm 0.00 in0.0 mm 0.00 in0.0 mm
09:22 PM 70.3°F21.3°C 55.4°F13.0°C 59% 4.0 mph NW6.4 kmh NW 10.1 mph16.3 kmh 29.96 in1014.6 mb 0.00 in0.0 mm 0.00 in0.0 mm 0.00 in0.0 mm
09:27 PM 70.2°F21.2°C 55.2°F12.9°C 59% 4.9 mph W7.9 kmh W 8.9 mph14.3 kmh 29.96 in1014.6 mb 0.00 in0.0 mm 0.00 in0.0 mm 0.00 in0.0 mm
09:32 PM 70.0°F21.1°C 55.0°F12.8°C 59% 4.9 mph W7.9 kmh W 8.9 mph14.3 kmh 29.96 in1014.6 mb 0.00 in0.0 mm 0.00 in0.0 mm 0.00 in0.0 mm
09:37 PM 70.0°F21.1°C 55.4°F13.0°C 60% 4.9 mph NW7.9 kmh NW 10.1 mph16.3 kmh 29.96 in1014.6 mb 0.00 in0.0 mm 0.00 in0.0 mm 0.00 in0.0 mm
09:42 PM 69.8°F21.0°C 54.9°F12.7°C 59% 6.0 mph NW9.7 kmh NW 8.9 mph14.3 kmh 29.96 in1014.6 mb 0.00 in0.0 mm 0.00 in0.0 mm 0.00 in0.0 mm
09:47 PM 69.8°F21.0°C 54.9°F12.7°C 59% 4.9 mph W7.9 kmh W 8.1 mph13.0 kmh 29.96 in1014.6 mb 0.00 in0.0 mm 0.00 in0.0 mm 0.00 in0.0 mm
09:52 PM 69.6°F20.9°C 54.7°F12.6°C 59% 4.9 mph WNW7.9 kmh WNW 10.1 mph16.3 kmh 29.96 in1014.6 mb 0.00 in0.0 mm 0.00 in0.0 mm 0.00 in0.0 mm
09:57 PM 69.6°F20.9°C 54.7°F12.6°C 59% 4.9 mph WNW7.9 kmh WNW 11.0 mph17.7 kmh 29.96 in1014.6 mb 0.00 in0.0 mm 0.00 in0.0 mm 0.00 in0.0 mm
10:02 PM 69.6°F20.9°C 54.1°F12.3°C 58% 4.0 mph NW6.4 kmh NW 8.9 mph14.3 kmh 29.96 in1014.6 mb 0.00 in0.0 mm 0.00 in0.0 mm 0.00 in0.0 mm
10:07 PM 69.4°F20.8°C 54.0°F12.2°C 58% 4.0 mph WSW6.4 kmh WSW 10.1 mph16.3 kmh 29.96 in1014.6 mb 0.00 in0.0 mm 0.00 in0.0 mm 0.00 in0.0 mm
10:12 PM 69.4°F20.8°C 54.0°F12.2°C 58% 4.9 mph W7.9 kmh W 10.1 mph16.3 kmh 29.96 in1014.6 mb 0.00 in0.0 mm 0.00 in0.0 mm 0.00 in0.0 mm
10:17 PM 69.3°F20.7°C 54.3°F12.4°C 59% 4.9 mph WNW7.9 kmh WNW 8.9 mph14.3 kmh 29.97 in1014.9 mb 0.00 in0.0 mm 0.00 in0.0 mm 0.00 in0.0 mm
10:22 PM 69.1°F20.6°C 54.1°F12.3°C 59% 4.9 mph WNW7.9 kmh WNW 8.9 mph14.3 kmh 29.97 in1014.9 mb 0.00 in0.0 mm 0.00 in0.0 mm 0.00 in0.0 mm
10:27 PM 69.1°F20.6°C 54.7°F12.6°C 60% 4.0 mph W6.4 kmh W 9.0 mph14.5 kmh 29.97 in1014.9 mb 0.00 in0.0 mm 0.00 in0.0 mm 0.00 in0.0 mm
10:32 PM 68.9°F20.5°C 54.5°F12.5°C 60% 4.0 mph W6.4 kmh W 9.0 mph14.5 kmh 29.97 in1014.9 mb 0.00 in0.0 mm 0.00 in0.0 mm 0.00 in0.0 mm
10:37 PM 68.9°F20.5°C 54.5°F12.5°C 60% 4.0 mph NW6.4 kmh NW 10.1 mph16.3 kmh 29.97 in1014.9 mb 0.00 in0.0 mm 0.00 in0.0 mm 0.00 in0.0 mm
10:42 PM 68.7°F20.4°C 54.3°F12.4°C 60% 4.0 mph W6.4 kmh W 8.9 mph14.3 kmh 29.97 in1014.9 mb 0.00 in0.0 mm 0.00 in0.0 mm 0.00 in0.0 mm
10:47 PM 68.7°F20.4°C 54.3°F12.4°C 60% 4.0 mph W6.4 kmh W 8.9 mph14.3 kmh 29.97 in1014.9 mb 0.00 in0.0 mm 0.00 in0.0 mm 0.00 in0.0 mm
10:52 PM 68.5°F20.3°C 54.1°F12.3°C 60% 4.0 mph W6.4 kmh W 8.1 mph13.0 kmh 29.97 in1014.9 mb 0.00 in0.0 mm 0.00 in0.0 mm 0.00 in0.0 mm
10:57 PM 68.5°F20.3°C 54.1°F12.3°C 60% 4.0 mph W6.4 kmh W 8.1 mph13.0 kmh 29.97 in1014.9 mb 0.00 in0.0 mm 0.00 in0.0 mm 0.00 in0.0 mm
11:02 PM 68.5°F20.3°C 54.1°F12.3°C 60% 4.0 mph NW6.4 kmh NW 8.1 mph13.0 kmh 29.97 in1014.9 mb 0.00 in0.0 mm 0.00 in0.0 mm 0.00 in0.0 mm
11:07 PM 68.4°F20.2°C 54.0°F12.2°C 60% 4.0 mph W6.4 kmh W 9.0 mph14.5 kmh 29.97 in1014.9 mb 0.00 in0.0 mm 0.00 in0.0 mm 0.00 in0.0 mm
11:12 PM 68.2°F20.1°C 53.8°F12.1°C 60% 4.9 mph WNW7.9 kmh WNW 10.1 mph16.3 kmh 29.97 in1014.9 mb 0.00 in0.0 mm 0.00 in0.0 mm 0.00 in0.0 mm
11:17 PM 68.2°F20.1°C 53.8°F12.1°C 60% 4.9 mph NW7.9 kmh NW 11.0 mph17.7 kmh 29.97 in1014.9 mb 0.00 in0.0 mm 0.00 in0.0 mm 0.00 in0.0 mm
11:22 PM 68.0°F20.0°C 53.6°F12.0°C 60% 6.0 mph WNW9.7 kmh WNW 12.1 mph19.5 kmh 29.97 in1014.9 mb 0.00 in0.0 mm 0.00 in0.0 mm 0.00 in0.0 mm
11:27 PM 67.8°F19.9°C 53.4°F11.9°C 60% 6.0 mph NW9.7 kmh NW 10.1 mph16.3 kmh 29.97 in1014.9 mb 0.00 in0.0 mm 0.00 in0.0 mm 0.00 in0.0 mm
11:32 PM 67.8°F19.9°C 53.4°F11.9°C 60% 4.9 mph W7.9 kmh W 12.1 mph19.5 kmh 29.97 in1014.9 mb 0.00 in0.0 mm 0.00 in0.0 mm 0.00 in0.0 mm
11:37 PM 67.8°F19.9°C 53.4°F11.9°C 60% 4.9 mph NW7.9 kmh NW 12.1 mph19.5 kmh 29.97 in1014.9 mb 0.00 in0.0 mm 0.00 in0.0 mm 0.00 in0.0 mm
11:42 PM 67.8°F19.9°C 52.9°F11.6°C 59% 4.9 mph W7.9 kmh W 12.1 mph19.5 kmh 29.97 in1014.9 mb 0.00 in0.0 mm 0.00 in0.0 mm 0.00 in0.0 mm
11:47 PM 67.6°F19.8°C 52.9°F11.6°C 59% 4.9 mph WSW7.9 kmh WSW 10.1 mph16.3 kmh 29.97 in1014.9 mb 0.00 in0.0 mm 0.00 in0.0 mm 0.00 in0.0 mm
11:52 PM 67.6°F19.8°C 52.9°F11.6°C 59% 4.9 mph WNW7.9 kmh WNW 10.1 mph16.3 kmh 29.97 in1014.9 mb 0.00 in0.0 mm 0.00 in0.0 mm 0.00 in0.0 mm
11:57 PM 67.6°F19.8°C 52.9°F11.6°C 59% 4.9 mph W7.9 kmh W 8.1 mph13.0 kmh 29.97 in1014.9 mb 0.00 in0.0 mm 0.00 in0.0 mm 0.00 in0.0 mm